Latest Weather Observations for Troughton Island

IDW60801

Issued at 10:43 pm WST Wednesday 8 July 2020 (issued every 10 minutes, with the page automatically refreshed every 10 minutes)

About weather observations | Map of weather stations | Latest weather observations for WA | Other Formats
Station Details ID: 001007 Name: TROUGHTON ISLAND Lat: -13.75 Lon: 126.15 Height: 6.0 m
Data from the previous 72 hours. | See also: Recent months at Troughton Island
Date/Time
WST
Temp
°C
App
Temp
°C
Dew
Point
°C
Rel
Hum
%
Delta-T
°C
Wind Press
QNH
hPa
Press
MSL
hPa
Rain since
9am
mm
Dir  Spd
km/h
Gust
km/h
Spd
kts
Gust
kts
08/10:30pm 25.4 22.4 14.8 52 6.3 E 24 28 13 15 1014.1 1014.0 0.0
08/10:00pm 25.2 22.1 14.6 51 6.3 ENE 24 30 13 16 1014.1 1014.0 0.0
08/09:30pm 24.9 21.5 14.7 53 6.1 ENE 26 32 14 17 1014.0 1013.9 0.0
08/09:00pm 25.0 20.5 13.9 50 6.5 ENE 30 33 16 18 1013.9 1013.8 0.0
08/08:30pm 25.2 20.1 13.7 49 6.8 ENE 33 41 18 22 1013.8 1013.7 0.0
08/08:00pm 25.1 20.4 14.3 51 6.4 ENE 32 35 17 19 1013.9 1013.8 0.0
08/07:30pm 25.4 21.3 14.8 52 6.3 ENE 30 35 16 19 1013.7 1013.6 0.0
08/07:00pm 25.4 21.0 15.1 53 6.2 ENE 32 39 17 21 1013.4 1013.3 0.0
08/06:30pm 25.2 20.6 14.6 51 6.3 ENE 32 37 17 20 1012.9 1012.8 0.0
08/06:00pm 25.2 20.5 14.9 52 6.2 ENE 33 41 18 22 1012.7 1012.6 0.0
08/05:30pm 25.3 20.8 15.3 54 6.0 ENE 33 39 18 21 1012.6 1012.5 0.0
08/05:00pm 25.6 20.2 13.8 48 7.0 ENE 35 41 19 22 1012.5 1012.4 0.0
08/04:30pm 26.1 21.6 15.5 52 6.4 ENE 33 39 18 21 1012.4 1012.3 0.0
08/04:00pm 26.7 21.9 14.5 47 7.3 ENE 33 43 18 23 1012.4 1012.3 0.0
08/03:30pm 27.0 22.0 14.1 45 7.7 ENE 33 43 18 23 1012.2 1012.1 0.0
08/03:00pm 27.4 22.1 14.1 44 7.9 ENE 35 43 19 23 1012.1 1012.0 0.0
08/02:30pm 27.7 22.9 14.7 45 7.8 E 33 41 18 22 1012.1 1012.0 0.0
08/02:00pm 28.0 23.4 14.6 44 8.1 E 32 39 17 21 1012.1 1012.0 0.0
08/01:30pm 27.6 23.4 14.6 45 7.8 E 30 35 16 19 1012.5 1012.4 0.0
08/01:00pm 27.9 23.6 13.1 40 8.7 E 28 33 15 18 1012.8 1012.7 0.0
08/12:30pm 28.8 23.9 11.4 34 10.0 E 28 35 15 19 1013.1 1013.0 0.0
08/12:00pm 27.9 23.2 10.6 34 9.8 ESE 26 32 14 17 1013.5 1013.4 0.0
08/11:30am 28.6 23.3 11.2 34 10.0 ESE 30 37 16 20 1013.8 1013.7 0.0
08/11:00am 27.7 20.7 8.6 30 10.4 ESE 35 43 19 23 1014.2 1014.1 0.0
08/10:30am 27.1 20.5 9.9 34 9.6 ESE 35 43 19 23 1014.7 1014.6 0.0
08/10:00am 26.2 19.4 9.1 34 9.3 ESE 35 43 19 23 1015.1 1015.0 0.0
08/09:30am 26.0 18.6 8.5 33 9.5 ESE 37 44 20 24 1015.0 1014.9 0.0
08/09:00am 25.5 17.7 6.7 30 9.8 ESE 37 46 20 25 1015.2 1015.1 0.0
08/08:30am 25.7 18.2 7.8 32 9.5 ESE 37 46 20 25 1015.2 1015.1 0.0
08/08:00am 25.3 17.7 7.4 32 9.4 ESE 37 46 20 25 1015.2 1015.1 0.0
08/07:30am 25.0 17.7 8.9 36 8.7 ESE 37 44 20 24 1015.0 1014.9 0.0
08/07:00am 24.6 17.0 7.7 34 8.9 ESE 37 46 20 25 1014.8 1014.7 0.0
08/06:30am 24.1 17.6 8.9 38 8.2 ESE 33 39 18 21 1014.6 1014.5 0.0
08/06:00am 23.7 18.2 10.4 43 7.3 ESE 30 37 16 20 1014.4 1014.3 0.0
08/05:30am 23.7 18.0 8.2 37 8.2 SE 28 33 15 18 1014.3 1014.2 0.0
08/05:00am 23.9 19.6 10.6 43 7.4 SE 24 28 13 15 1014.2 1014.1 0.0
08/04:30am 24.0 19.3 9.2 39 8.0 ESE 24 30 13 16 1014.2 1014.1 0.0
08/04:00am 24.0 19.4 9.6 40 7.8 SE 24 28 13 15 1014.4 1014.3 0.0
08/03:30am 23.7 19.4 9.3 40 7.8 SE 22 26 12 14 1014.5 1014.4 0.0
08/03:00am 24.1 19.4 9.3 39 8.0 SE 24 30 13 16 1014.5 1014.4 0.0
08/02:30am 24.1 19.8 10.7 43 7.4 SE 24 28 13 15 1014.5 1014.4 0.0
08/02:00am 24.2 20.2 11.9 46 7.0 SE 24 30 13 16 1014.7 1014.6 0.0
08/01:30am 24.3 20.7 12.9 49 6.6 SE 24 28 13 15 1014.9 1014.8 0.0
08/01:00am 24.4 20.1 12.0 46 7.1 ESE 26 30 14 16 1014.8 1014.7 0.0
08/12:30am 24.4 20.7 13.9 52 6.2 ESE 26 30 14 16 1015.2 1015.1 0.0
08/12:00am 24.9 21.2 12.8 47 7.0 ESE 24 30 13 16 1015.4 1015.3 0.0
 
Date/Time
WST
Temp
°C
App
Temp
°C
Dew
Point
°C
Rel
Hum
%
Delta-T
°C
Wind Press
QNH
hPa
Press
MSL
hPa
Rain since
9am
mm
Dir  Spd
km/h
Gust
km/h
Spd
kts
Gust
kts
07/11:30pm 24.7 21.4 15.1 55 5.8 ESE 26 30 14 16 1015.5 1015.4 0.0
07/11:00pm 24.8 20.6 14.6 53 6.1 E 30 33 16 18 1015.5 1015.4 0.0
07/10:30pm 25.1 20.6 13.9 49 6.6 E 30 35 16 19 1015.4 1015.3 0.0
07/10:00pm 25.3 20.5 14.7 51 6.3 E 33 39 18 21 1015.3 1015.2 0.0
07/09:30pm 25.1 21.9 17.3 62 4.9 E 30 35 16 19 1015.2 1015.1 0.0
07/09:00pm 24.9 21.5 15.8 57 5.5 E 28 32 15 17 1015.0 1014.9 0.0
07/08:30pm 25.0 22.8 17.0 61 5.0 ENE 24 30 13 16 1014.9 1014.8 0.0
07/08:00pm 25.0 22.1 16.2 58 5.4 ENE 26 32 14 17 1014.8 1014.7 0.0
07/07:30pm 24.8 21.3 16.5 60 5.1 ENE 30 33 16 18 1014.6 1014.5 0.0
07/07:00pm 24.8 21.3 16.5 60 5.1 ENE 30 35 16 19 1014.5 1014.4 0.0
07/06:30pm 24.9 21.5 15.8 57 5.5 ENE 28 33 15 18 1014.2 1014.1 0.0
07/06:00pm 25.1 21.4 14.9 53 6.1 ENE 28 32 15 17 1014.0 1013.9 0.0
07/05:30pm 25.2 21.5 14.9 52 6.2 ENE 28 33 15 18 1013.7 1013.6 0.0
07/05:00pm 25.3 22.0 15.0 53 6.2 E 26 32 14 17 1013.5 1013.4 0.0
07/04:30pm 25.6 22.2 15.9 55 5.9 E 28 32 15 17 1013.6 1013.5 0.0
07/04:00pm 25.9 22.4 15.6 53 6.3 E 28 33 15 18 1013.5 1013.4 0.0
07/03:30pm 26.1 22.7 15.8 53 6.3 ENE 28 37 15 20 1013.6 1013.5 0.0
07/03:00pm 26.3 22.5 15.7 52 6.5 ENE 30 37 16 20 1013.6 1013.5 0.0
07/02:30pm 26.3 22.3 16.3 54 6.2 ENE 32 39 17 21 1013.7 1013.6 0.0
07/02:00pm 26.5 22.0 15.5 50 6.7 E 33 39 18 21 1013.8 1013.7 0.0
07/01:30pm 26.6 21.9 15.9 51 6.6 E 35 39 19 21 1014.0 1013.9 0.0
07/01:00pm 26.6 21.7 14.4 47 7.3 E 33 41 18 22 1014.5 1014.4 0.0
07/12:30pm 26.9 21.8 13.6 44 7.9 E 33 43 18 23 1014.9 1014.8 0.0
07/12:00pm 27.4 21.8 13.4 42 8.3 E 35 44 19 24 1015.3 1015.2 0.0
07/11:30am 27.2 21.4 12.8 41 8.4 E 35 44 19 24 1015.6 1015.5 0.0
07/11:00am 27.2 21.3 12.4 40 8.6 ESE 35 43 19 23 1016.0 1015.9 0.0
07/10:30am 26.5 19.8 11.0 38 8.8 ESE 37 46 20 25 1016.3 1016.2 0.0
07/10:00am 25.8 18.9 10.4 38 8.6 ESE 37 46 20 25 1016.8 1016.7 0.0
07/09:30am 25.4 17.2 8.0 33 9.3 ESE 41 50 22 27 1016.9 1016.8 0.0
07/09:00am 25.3 17.0 7.9 33 9.2 ESE 41 50 22 27 1017.0 1016.9 0.0
07/08:30am 24.9 16.3 6.6 31 9.5 ESE 41 52 22 28 1017.0 1016.9 0.0
07/08:00am 24.8 15.8 7.4 33 9.1 ESE 44 52 24 28 1017.0 1016.9 0.0
07/07:30am 24.6 16.1 8.5 36 8.6 ESE 43 50 23 27 1016.7 1016.6 0.0
07/07:00am 24.3 16.5 9.8 40 7.9 ESE 41 50 22 27 1016.5 1016.4 0.0
07/06:30am 24.0 15.3 7.6 35 8.6 ESE 43 52 23 28 1016.2 1016.1 0.0
07/06:00am 23.8 16.2 9.0 39 8.0 ESE 39 48 21 26 1016.0 1015.9 0.0
07/05:30am 23.9 15.2 7.9 36 8.4 ESE 43 52 23 28 1015.7 1015.6 0.0
07/05:00am 24.0 16.3 8.8 38 8.2 SE 39 48 21 26 1015.6 1015.5 0.0
07/04:30am 24.2 17.2 11.2 44 7.3 ESE 39 48 21 26 1015.2 1015.1 0.0
07/04:00am 24.4 17.8 11.4 44 7.3 SE 37 46 20 25 1015.3 1015.2 0.0
07/03:30am 24.4 17.4 9.9 40 8.0 SE 37 46 20 25 1015.3 1015.2 0.0
07/03:00am 24.5 17.5 10.0 40 8.0 SE 37 44 20 24 1015.4 1015.3 0.0
07/02:30am 24.7 18.2 10.2 40 8.0 SE 35 46 19 25 1015.3 1015.2 0.0
07/02:00am 24.5 18.4 11.8 45 7.2 SE 35 43 19 23 1015.4 1015.3 0.0
07/01:30am 24.6 19.4 12.9 48 6.8 SE 32 41 17 22 1015.5 1015.4 0.0
07/01:00am 24.6 18.9 11.2 43 7.5 SE 32 37 17 20 1015.7 1015.6 0.0
07/12:30am 24.6 20.8 14.7 54 5.9 SE 28 33 15 18 1015.8 1015.7 0.0
07/12:00am 24.8 20.4 14.0 51 6.4 SE 30 35 16 19 1016.0 1015.9 0.0
 
Date/Time
WST
Temp
°C
App
Temp
°C
Dew
Point
°C
Rel
Hum
%
Delta-T
°C
Wind Press
QNH
hPa
Press
MSL
hPa
Rain since
9am
mm
Dir  Spd
km/h
Gust
km/h
Spd
kts
Gust
kts
06/11:30pm 24.8 20.8 15.1 54 5.8 ESE 30 35 16 19 1016.0 1015.9 0.0
06/11:00pm 24.8 20.1 14.3 52 6.2 SE 32 35 17 19 1016.1 1016.0 0.0
06/10:30pm 25.1 21.0 14.9 53 6.1 ESE 30 35 16 19 1016.1 1016.0 0.0
06/10:00pm 25.5 21.9 15.2 53 6.2 ESE 28 35 15 19 1016.1 1016.0 0.0
06/09:30pm 25.5 22.0 16.6 58 5.5 E 30 37 16 20 1016.2 1016.1 0.0
06/09:00pm 25.6 21.6 15.3 53 6.2 E 30 35 16 19 1016.1 1016.0 0.0
06/08:30pm 25.7 21.7 15.1 52 6.4 E 30 35 16 19 1016.1 1016.0 0.0
06/08:00pm 26.0 22.2 15.7 53 6.3 E 30 35 16 19 1015.9 1015.8 0.0
06/07:30pm 25.8 22.1 16.1 55 5.9 E 30 35 16 19 1015.9 1015.8 0.0
06/07:00pm 25.5 22.7 17.4 61 5.1 E 28 32 15 17 1015.5 1015.4 0.0
06/06:30pm 25.6 22.4 17.3 60 5.2 ENE 30 35 16 19 1015.3 1015.2 0.0
06/06:00pm 25.4 22.8 17.8 62 4.8 ENE 28 33 15 18 1015.0 1014.9 0.0
06/05:30pm 25.4 23.5 17.6 62 4.9 ENE 24 30 13 16 1015.0 1014.9 0.0
06/05:00pm 25.6 23.6 17.3 60 5.2 ENE 24 30 13 16 1014.6 1014.5 0.0
06/04:30pm 26.1 24.1 17.5 59 5.4 ENE 24 30 13 16 1014.3 1014.2 0.0
06/04:00pm 26.5 24.5 17.3 57 5.8 E 24 28 13 15 1014.2 1014.1 0.0
06/03:30pm 26.7 24.4 17.5 57 5.8 E 26 30 14 16 1014.1 1014.0 0.0
06/03:00pm 26.9 23.9 16.8 54 6.3 E 28 33 15 18 1013.9 1013.8 0.0
06/02:30pm 27.1 23.8 16.1 51 6.8 E 28 33 15 18 1014.1 1014.0 0.0
06/02:00pm 27.2 24.1 16.5 52 6.6 E 28 33 15 18 1014.1 1014.0 0.0
06/01:30pm 27.3 23.2 15.0 47 7.4 E 30 35 16 19 1014.2 1014.1 0.0
06/01:00pm 28.3 24.7 15.2 44 8.0 E 28 35 15 19 1014.5 1014.4 0.0
06/12:30pm 28.0 23.3 13.1 39 8.8 ESE 30 37 16 20 1014.8 1014.7 0.0
06/12:00pm 28.1 22.8 12.5 38 9.1 ESE 32 41 17 22 1014.9 1014.8 0.0
06/11:30am 27.5 22.3 12.7 40 8.6 ESE 32 39 17 21 1015.5 1015.4 0.0
06/11:00am 26.7 21.3 12.7 42 8.1 ESE 33 41 18 22 1015.8 1015.7 0.0
06/10:30am 26.2 19.6 11.2 39 8.5 ESE 37 46 20 25 1016.2 1016.1 0.0
06/10:00am 25.9 19.4 11.6 40 8.1 ESE 37 46 20 25 1016.5 1016.4 0.0
06/09:30am 25.7 17.9 9.9 37 8.7 ESE 41 56 22 30 1016.5 1016.4 0.0
06/09:00am 25.2 17.5 11.4 42 7.8 ESE 43 52 23 28 1016.8 1016.7 0.0
06/08:30am 24.7 16.5 9.8 39 8.2 ESE 43 52 23 28 1016.6 1016.5 0.0
06/08:00am 24.5 16.1 9.6 39 8.1 ESE 44 56 24 30 1016.5 1016.4 0.0
06/07:30am 24.5 16.0 10.8 42 7.6 ESE 46 56 25 30 1016.2 1016.1 0.0
06/07:00am 24.4 16.1 11.4 44 7.3 ESE 46 56 25 30 1015.9 1015.8 0.0
06/06:30am 24.2 15.9 10.1 41 7.8 ESE 44 57 24 31 1015.8 1015.7 0.0
06/06:00am 24.1 15.3 9.7 40 7.9 ESE 46 56 25 30 1015.7 1015.6 0.0
06/05:30am 24.2 15.5 9.8 40 7.9 ESE 46 56 25 30 1015.5 1015.4 0.0
06/05:00am 24.3 15.7 10.2 41 7.8 ESE 46 56 25 30 1015.2 1015.1 0.0
06/04:30am 24.4 15.7 9.9 40 8.0 ESE 46 56 25 30 1015.1 1015.0 0.0
06/04:00am 24.6 16.2 9.7 39 8.1 ESE 44 54 24 29 1015.2 1015.1 0.0
06/03:30am 24.6 16.7 10.8 42 7.7 ESE 43 52 23 28 1015.1 1015.0 0.0
06/03:00am 24.5 16.8 11.5 44 7.3 ESE 43 50 23 27 1015.1 1015.0 0.0
06/02:30am 24.7 17.9 12.0 45 7.2 ESE 39 46 21 25 1015.2 1015.1 0.0
06/02:00am 24.5 18.1 10.8 42 7.6 ESE 35 43 19 23 1015.3 1015.2 0.0
06/01:30am 24.7 18.8 11.3 43 7.5 ESE 33 39 18 21 1015.5 1015.4 0.0
06/01:00am 24.6 19.2 12.2 46 7.1 ESE 32 39 17 21 1015.7 1015.6 0.0
06/12:30am 24.5 20.2 13.1 49 6.6 ESE 28 33 15 18 1016.1 1016.0 0.0
06/12:00am 24.6 20.4 13.5 50 6.5 ESE 28 33 15 18 1016.2 1016.1 0.0
 
Date/Time
WST
Temp
°C
App
Temp
°C
Dew
Point
°C
Rel
Hum
%
Delta-T
°C
Wind Press
QNH
hPa
Press
MSL
hPa
Rain since
9am
mm
Dir  Spd
km/h
Gust
km/h
Spd
kts
Gust
kts
05/11:30pm 24.6 21.6 14.7 54 5.9 ESE 24 30 13 16 1016.2 1016.1 0.0
05/11:00pm 24.6 20.4 13.5 50 6.5 SE 28 33 15 18 1016.1 1016.0 0.0

Other formats

Comma delimited format used in spreadsheet applications
http://www.bom.gov.au/fwo/IDW60801/IDW60801.94102.axf

JavaScript Object Notation format (JSON) in row-major order
http://www.bom.gov.au/fwo/IDW60801/IDW60801.94102.json

Data quality

Most of these data are generated automatically and are frequently updated. Quality checks on data are not normally performed. It is possible for incorrect values to appear. Refer to information at About Latest Weather Observations and please check the disclaimer before using these data.